Solicitamos su permiso para obtener datos estadísticos de su navegación en esta web, en cumplimiento del Real Decreto-ley 13/2012. Si continúa navegando consideramos que acepta el uso de cookies. OK | Más información

AIRPORT MAP

METAR AND TAF INFORMATION

METAR FOR LEJR
ADDS - METARS form results

(0919 UTC 16 December 2017)
Data provider http://aviationweather.gov/adds/metars/
 
METAR text: LEJR 160900Z 36011KT CAVOK 07/06 Q1018
Conditions at: LEJR (JEREZ (CIV/MIL) , ES) observed 0900 UTC 16 December 2017
Temperature: 7.0°C (45°F)
Dewpoint: 6.0°C (43°F) [RH = 93%]
Pressure (altimeter): 30.06 inches Hg (1018.0 mb)
Winds: from the N (360 degrees) at 13 MPH (11 knots; 5.7 m/s)
Visibility: 6 or more miles (10+ km)
Ceiling: ceiling and visibility are OK
Clouds: unknown
Weather: no significant weather observed at this time

METAR text: LEJR 160830Z 00000KT CAVOK 06/05 Q1018
Conditions at: LEJR (JEREZ (CIV/MIL) , ES) observed 0830 UTC 16 December 2017
Temperature: 6.0°C (43°F)
Dewpoint: 5.0°C (41°F) [RH = 93%]
Pressure (altimeter): 30.06 inches Hg (1018.0 mb)
Winds: calm
Visibility: 6 or more miles (10+ km)
Ceiling: ceiling and visibility are OK
Clouds: unknown
Weather: no significant weather observed at this time

Forecast for: LEJR (JEREZ (CIV/MIL) , ES)
Text: TAF LEJR 160500Z 1606/1706 01009KT CAVOK TX15/1614Z TN04/1706Z
Forecast period: 0600 UTC 16 December 2017 to 0600 UTC 17 December 2017
Forecast type: FROM: standard forecast or significant change
Winds: from the N (10 degrees) at 10 MPH (9 knots; 4.7 m/s)
Visibility: 6 or more miles (10+ km)
Clouds: not forecast
Weather: no significant weather forecast for this period
Text: PROB30
Forecast period: 1100 to 1600 UTC 16 December 2017
Forecast type: TEMPORARY: The following changes expected for less than half the time period
Winds: from the NNE (20 degrees) at 17 MPH (15 knots; 7.8 m/s)
gusting to 29 MPH (25 knots; 13.0 m/s)
Weather: no significant weather forecast for this period

}